createdAt,value
2018-03-04T00:02:15.422Z,42.87
2018-03-04T00:04:42.951Z,38.57
2018-03-04T00:07:10.607Z,39.80
2018-03-04T00:09:38.582Z,37.70
2018-03-04T00:12:06.634Z,38.80
2018-03-04T00:14:34.156Z,37.67
2018-03-04T00:17:01.676Z,38.30
2018-03-04T00:19:29.197Z,38.40
2018-03-04T00:21:56.726Z,43.13
2018-03-04T00:24:24.238Z,43.50
2018-03-04T00:26:51.773Z,40.80
2018-03-04T00:29:19.347Z,38.60
2018-03-04T00:31:46.886Z,40.97
2018-03-04T00:34:14.401Z,42.90
2018-03-04T00:36:41.930Z,38.60
2018-03-04T00:39:09.454Z,42.50
2018-03-04T00:41:36.971Z,37.87
2018-03-04T00:44:04.494Z,46.40
2018-03-04T00:46:32.068Z,39.93
2018-03-04T00:48:59.989Z,37.20
2018-03-04T00:51:29.742Z,42.93
2018-03-04T00:53:57.714Z,43.93
2018-03-04T00:56:25.631Z,41.23
2018-03-04T00:58:53.149Z,42.90
2018-03-04T01:01:20.673Z,41.03
2018-03-04T01:03:48.184Z,42.67
2018-03-04T01:06:15.917Z,39.07
2018-03-04T01:08:43.429Z,41.07
2018-03-04T01:11:29.639Z,43.70
2018-03-04T01:13:57.222Z,44.87
2018-03-04T01:16:25.135Z,39.87
2018-03-04T01:18:52.658Z,44.63
2018-03-04T01:21:20.170Z,41.63
2018-03-04T01:23:47.687Z,42.93
2018-03-04T01:26:15.238Z,44.23
2018-03-04T01:28:43.007Z,41.67
2018-03-04T01:31:10.553Z,42.63
2018-03-04T01:33:38.118Z,41.57
2018-03-04T01:36:05.701Z,47.13
2018-03-04T01:38:33.209Z,41.60
2018-03-04T01:41:05.770Z,42.20
2018-03-04T01:43:33.278Z,45.60
2018-03-04T01:46:00.811Z,43.40
2018-03-04T01:48:28.427Z,44.80
2018-03-04T01:50:56.185Z,42.27
2018-03-04T01:53:23.719Z,45.90
2018-03-04T01:55:51.299Z,41.10
2018-03-04T01:58:18.926Z,42.10
2018-03-04T02:00:46.449Z,45.30
2018-03-04T02:03:14.063Z,44.23
2018-03-04T02:05:41.603Z,45.50
2018-03-04T02:08:09.128Z,44.23
2018-03-04T02:10:36.647Z,46.77
2018-03-04T02:13:04.165Z,43.63
2018-03-04T02:15:32.078Z,46.33
2018-03-04T02:17:59.615Z,47.63
2018-03-04T02:20:27.159Z,48.47
2018-03-04T02:22:59.836Z,48.90
2018-03-04T02:25:27.351Z,49.77
2018-03-04T02:27:54.877Z,50.67
2018-03-04T02:30:22.429Z,45.10
2018-03-04T02:32:49.953Z,48.53
2018-03-04T02:35:18.107Z,48.63
2018-03-04T02:37:45.631Z,44.10
2018-03-04T02:40:13.194Z,49.73
2018-03-04T02:42:40.736Z,56.40
2018-03-04T02:45:08.295Z,51.00
2018-03-04T02:47:41.791Z,50.13
2018-03-04T02:50:09.366Z,48.80
2018-03-04T02:52:36.921Z,47.37
2018-03-04T02:55:04.838Z,46.70
2018-03-04T02:57:32.787Z,48.20
2018-03-04T03:00:00.450Z,54.37
2018-03-04T03:02:27.994Z,55.37
2018-03-04T03:04:59.886Z,49.43
2018-03-04T03:07:27.582Z,51.63
2018-03-04T03:09:55.154Z,50.37
2018-03-04T03:12:23.146Z,48.83
2018-03-04T03:14:50.697Z,47.30
2018-03-04T03:17:18.225Z,46.00
2018-03-04T03:19:45.746Z,47.07
2018-03-04T03:22:13.697Z,47.63
2018-03-04T03:24:41.211Z,48.00
2018-03-04T03:27:08.738Z,50.57
2018-03-04T03:29:36.670Z,47.20
2018-03-04T03:32:04.185Z,52.30
2018-03-04T03:34:31.724Z,50.80
2018-03-04T03:36:59.454Z,47.53
2018-03-04T03:39:26.996Z,50.50
2018-03-04T03:41:54.511Z,46.43
2018-03-04T03:44:22.053Z,47.67
2018-03-04T03:46:49.696Z,46.63
2018-03-04T03:49:17.258Z,48.53
2018-03-04T03:51:45.211Z,46.17
2018-03-04T03:54:12.772Z,44.53
2018-03-04T03:56:41.771Z,50.70
2018-03-04T03:59:09.356Z,46.83
2018-03-04T04:01:37.010Z,47.30
2018-03-04T04:04:04.583Z,44.43
2018-03-04T04:06:32.106Z,43.63
2018-03-04T04:08:59.629Z,42.97
2018-03-04T04:11:27.148Z,46.77
2018-03-04T04:13:54.679Z,40.83
2018-03-04T04:16:22.189Z,36.33
2018-03-04T04:18:49.724Z,37.53
2018-03-04T04:21:17.285Z,34.77
2018-03-04T04:23:45.079Z,34.97
2018-03-04T04:26:12.645Z,33.87
2018-03-04T04:28:40.162Z,33.00
2018-03-04T04:31:07.719Z,33.70
2018-03-04T04:33:35.258Z,34.10
2018-03-04T04:36:06.122Z,30.93
2018-03-04T04:38:33.662Z,33.00
2018-03-04T04:41:03.374Z,30.80
2018-03-04T04:43:30.901Z,32.30
2018-03-04T04:45:58.466Z,29.10
2018-03-04T04:48:26.051Z,30.20
2018-03-04T04:50:53.573Z,28.77
2018-03-04T04:53:23.717Z,27.20
2018-03-04T04:55:51.719Z,25.77
2018-03-04T04:58:19.250Z,28.00
2018-03-04T05:00:46.768Z,29.93
2018-03-04T05:03:14.294Z,27.33
2018-03-04T05:05:41.818Z,31.23
2018-03-04T05:08:09.754Z,30.57
2018-03-04T05:10:37.584Z,31.63
2018-03-04T05:13:05.148Z,31.83
2018-03-04T05:15:32.854Z,27.33
2018-03-04T05:18:00.390Z,31.53
2018-03-04T05:20:27.915Z,29.37
2018-03-04T05:22:55.450Z,31.90
2018-03-04T05:25:23.424Z,32.60
2018-03-04T05:27:50.953Z,29.40
2018-03-04T05:30:18.470Z,34.40
2018-03-04T05:32:46.052Z,32.63
2018-03-04T05:35:13.572Z,32.93
2018-03-04T05:37:41.120Z,33.17
2018-03-04T05:40:08.670Z,31.60
2018-03-04T05:42:36.496Z,28.47
2018-03-04T05:45:04.165Z,32.03
2018-03-04T05:47:31.682Z,32.10
2018-03-04T05:49:59.201Z,31.87
2018-03-04T05:52:27.350Z,30.17
2018-03-04T05:54:54.877Z,33.20
2018-03-04T05:57:22.463Z,36.53
2018-03-04T05:59:49.990Z,33.57
2018-03-04T06:02:17.513Z,30.87
2018-03-04T06:04:45.570Z,30.87
2018-03-04T06:07:13.731Z,34.80
2018-03-04T06:09:41.416Z,35.17
2018-03-04T06:12:09.050Z,35.10
2018-03-04T06:14:36.608Z,36.13
2018-03-04T06:17:04.113Z,33.93
2018-03-04T06:19:31.644Z,33.07
2018-03-04T06:21:59.594Z,33.53
2018-03-04T06:24:27.378Z,35.20
2018-03-04T06:26:54.894Z,32.27
2018-03-04T06:29:22.428Z,36.37
2018-03-04T06:31:50.159Z,35.50
2018-03-04T06:34:17.707Z,34.67
2018-03-04T06:36:45.614Z,35.83
2018-03-04T06:39:13.187Z,35.40
2018-03-04T06:41:41.466Z,35.23
2018-03-04T06:44:17.733Z,34.13
2018-03-04T06:46:45.278Z,34.27
2018-03-04T06:49:12.806Z,35.13
2018-03-04T06:51:40.346Z,34.57
2018-03-04T06:54:08.267Z,36.20
2018-03-04T06:56:35.800Z,42.60
2018-03-04T06:59:03.306Z,34.73
2018-03-04T07:01:30.866Z,36.37
2018-03-04T07:03:58.394Z,36.10
2018-03-04T07:06:25.916Z,37.23
2018-03-04T07:08:53.438Z,32.13
2018-03-04T07:11:20.956Z,34.90
2018-03-04T07:13:48.479Z,36.20
2018-03-04T07:16:16.389Z,34.73
2018-03-04T07:18:43.911Z,30.50
2018-03-04T07:21:11.438Z,33.13
2018-03-04T07:23:38.989Z,28.90
2018-03-04T07:26:06.507Z,30.90
2018-03-04T07:28:34.034Z,26.67
2018-03-04T07:31:01.570Z,25.40
2018-03-04T07:33:29.159Z,27.40
2018-03-04T07:35:56.682Z,23.63
2018-03-04T07:38:24.247Z,27.67
2018-03-04T07:40:51.815Z,22.23
2018-03-04T07:43:19.773Z,27.47
2018-03-04T07:45:47.296Z,25.60
2018-03-04T07:48:14.814Z,25.37
2018-03-04T07:50:48.009Z,27.87
2018-03-04T07:53:15.558Z,27.33
2018-03-04T07:55:43.494Z,27.00
2018-03-04T07:58:11.083Z,23.20
2018-03-04T08:00:38.996Z,24.30
2018-03-04T08:03:06.645Z,26.60
2018-03-04T08:05:34.175Z,23.60
2018-03-04T08:10:54.974Z,22.67
2018-03-04T08:13:22.946Z,22.17
2018-03-04T08:15:50.870Z,27.50
2018-03-04T08:18:18.481Z,25.50
2018-03-04T08:20:46.005Z,23.00
2018-03-04T08:23:13.531Z,24.40
2018-03-04T08:25:41.058Z,23.27
2018-03-04T08:28:20.348Z,23.63
2018-03-04T08:30:47.895Z,26.47
2018-03-04T08:33:15.406Z,24.93
2018-03-04T08:35:43.334Z,25.43
2018-03-04T08:38:10.842Z,23.30
2018-03-04T08:40:38.394Z,23.83
2018-03-04T08:43:05.923Z,23.00
2018-03-04T08:45:33.563Z,24.53
2018-03-04T08:48:01.055Z,21.67
2018-03-04T08:50:28.582Z,21.50
2018-03-04T08:52:56.100Z,24.70
2018-03-04T08:55:23.654Z,21.07
2018-03-04T08:57:51.186Z,20.53
2018-03-04T09:00:19.116Z,19.53
2018-03-04T09:02:47.093Z,22.00
2018-03-04T09:05:15.074Z,24.40
2018-03-04T09:07:42.590Z,20.67
2018-03-04T09:10:10.098Z,20.70
2018-03-04T09:12:38.011Z,20.80
2018-03-04T09:15:05.523Z,19.27
2018-03-04T09:17:33.082Z,19.87
2018-03-04T09:20:00.993Z,20.53
2018-03-04T09:22:28.531Z,19.93
2018-03-04T09:24:56.106Z,22.73
2018-03-04T09:27:23.648Z,19.77
2018-03-04T09:29:51.164Z,20.93
2018-03-04T09:32:18.965Z,18.80
2018-03-04T09:34:46.559Z,17.70
2018-03-04T09:37:14.099Z,16.40
2018-03-04T09:39:41.919Z,19.60
2018-03-04T09:42:11.895Z,19.27
2018-03-04T09:44:39.416Z,19.27
2018-03-04T09:47:07.326Z,21.17
2018-03-04T09:49:34.883Z,18.40
2018-03-04T09:52:02.399Z,16.30
2018-03-04T09:54:30.315Z,19.67
2018-03-04T09:56:57.874Z,18.20
2018-03-04T09:59:25.391Z,20.37
2018-03-04T10:01:52.907Z,17.50
2018-03-04T10:04:20.697Z,18.50
2018-03-04T10:06:48.857Z,16.90
2018-03-04T10:09:16.423Z,18.13
2018-03-04T10:11:44.461Z,16.70
2018-03-04T10:14:12.042Z,15.47
2018-03-04T10:16:40.030Z,17.47
2018-03-04T10:19:07.974Z,14.67
2018-03-04T10:21:35.502Z,13.53
2018-03-04T10:24:03.031Z,14.70
2018-03-04T10:26:30.558Z,15.50
2018-03-04T10:28:58.075Z,13.73
2018-03-04T10:31:25.674Z,13.63
2018-03-04T10:33:53.183Z,14.33
2018-03-04T10:36:20.712Z,13.73
2018-03-04T10:38:48.630Z,12.07
2018-03-04T10:41:16.157Z,14.03
2018-03-04T10:43:43.679Z,14.27
2018-03-04T10:46:11.623Z,14.17
2018-03-04T10:48:39.194Z,12.83
2018-03-04T10:51:07.155Z,15.27
2018-03-04T10:53:34.704Z,13.80
2018-03-04T10:56:02.239Z,14.60
2018-03-04T10:58:29.930Z,12.60
2018-03-04T11:00:57.531Z,13.60
2018-03-04T11:03:25.429Z,12.63
2018-03-04T11:05:53.143Z,11.47
2018-03-04T11:08:21.055Z,13.73
2018-03-04T11:10:48.678Z,13.40
2018-03-04T11:13:16.206Z,15.27
2018-03-04T11:15:43.726Z,11.63
2018-03-04T11:18:12.062Z,12.43
2018-03-04T11:20:39.930Z,10.70
2018-03-04T11:23:07.450Z,10.50
2018-03-04T11:25:34.970Z,11.47
2018-03-04T11:28:02.476Z,10.97
2018-03-04T11:30:29.987Z,10.70
2018-03-04T11:32:57.542Z,10.80
2018-03-04T11:35:27.096Z,8.90
2018-03-04T11:37:54.674Z,10.90
2018-03-04T11:40:22.625Z,9.40
2018-03-04T11:42:50.261Z,10.37
2018-03-04T11:45:17.847Z,9.00
2018-03-04T11:47:45.790Z,9.93
2018-03-04T11:50:13.483Z,8.73
2018-03-04T11:52:41.465Z,8.70
2018-03-04T11:55:09.226Z,10.60
2018-03-04T11:57:36.790Z,8.63
2018-03-04T12:00:04.312Z,9.37
2018-03-04T12:02:31.834Z,7.43
2018-03-04T12:04:59.358Z,9.90
2018-03-04T12:07:27.266Z,8.23
2018-03-04T12:09:54.973Z,7.13
2018-03-04T12:12:22.482Z,6.93
2018-03-04T12:14:49.996Z,9.50
2018-03-04T12:17:17.907Z,6.80
2018-03-04T12:19:45.424Z,7.10
2018-03-04T12:22:13.021Z,6.63
2018-03-04T12:24:40.542Z,7.10
2018-03-04T12:27:08.460Z,6.90
2018-03-04T12:29:36.010Z,9.50
2018-03-04T12:32:03.522Z,6.00
2018-03-04T12:34:31.439Z,5.67
2018-03-04T12:36:59.231Z,5.33
2018-03-04T12:39:26.898Z,7.17
2018-03-04T12:41:54.541Z,5.10
2018-03-04T12:44:22.062Z,5.53
2018-03-04T12:46:49.579Z,5.40
2018-03-04T12:49:18.162Z,7.40
2018-03-04T12:51:45.671Z,5.80
2018-03-04T12:54:13.230Z,5.97
2018-03-04T12:56:40.942Z,5.30
2018-03-04T12:59:09.008Z,5.03
2018-03-04T13:01:36.518Z,4.97
2018-03-04T13:04:04.065Z,6.90
2018-03-04T13:06:31.622Z,6.50
2018-03-04T13:08:59.664Z,4.70
2018-03-04T13:11:27.595Z,7.27
2018-03-04T13:13:55.391Z,5.10
2018-03-04T13:16:23.038Z,6.73
2018-03-04T13:18:50.605Z,4.60
2018-03-04T13:21:18.535Z,4.20
2018-03-04T13:23:46.038Z,4.77
2018-03-04T13:26:13.567Z,4.20
2018-03-04T13:28:41.339Z,6.17
2018-03-04T13:31:09.702Z,4.97
2018-03-04T13:33:37.242Z,5.10
2018-03-04T13:36:04.834Z,4.90
2018-03-04T13:38:32.350Z,5.23
2018-03-04T13:40:59.871Z,4.57
2018-03-04T13:43:35.683Z,4.00
2018-03-04T13:46:03.194Z,4.47
2018-03-04T13:48:30.721Z,3.90
2018-03-04T13:51:05.966Z,6.10
2018-03-04T13:53:33.874Z,4.47
2018-03-04T13:56:01.484Z,4.50
2018-03-04T13:58:29.027Z,4.43
2018-03-04T14:00:56.569Z,5.50
2018-03-04T14:03:24.087Z,4.17
2018-03-04T14:05:51.605Z,4.33
2018-03-04T14:08:19.136Z,3.83
2018-03-04T14:10:46.644Z,3.90
2018-03-04T14:13:14.550Z,7.53
2018-03-04T14:15:42.071Z,4.40
2018-03-04T14:18:09.707Z,3.97
2018-03-04T14:20:42.081Z,4.57
2018-03-04T14:23:09.854Z,4.40
2018-03-04T14:25:37.806Z,4.13
2018-03-04T14:28:05.375Z,3.50
2018-03-04T14:30:33.290Z,3.33
2018-03-04T14:33:00.816Z,2.67
2018-03-04T14:35:28.362Z,3.30
2018-03-04T14:37:55.910Z,3.70
2018-03-04T14:40:24.182Z,4.20
2018-03-04T14:42:51.687Z,3.57
2018-03-04T14:45:19.210Z,4.13
2018-03-04T14:47:46.757Z,3.37
2018-03-04T14:50:14.281Z,3.53
2018-03-04T14:52:48.398Z,2.90
2018-03-04T14:55:15.985Z,4.23
2018-03-04T14:57:43.539Z,3.67
2018-03-04T15:00:11.053Z,3.53
2018-03-04T15:02:38.588Z,4.13
2018-03-04T15:05:06.096Z,3.90
2018-03-04T15:07:46.892Z,4.10
2018-03-04T15:10:18.263Z,4.20
2018-03-04T15:12:45.780Z,3.57
2018-03-04T15:15:18.091Z,5.70
2018-03-04T15:17:45.642Z,3.47
2018-03-04T15:20:13.230Z,4.70
2018-03-04T15:22:40.747Z,4.47
2018-03-04T15:25:08.674Z,4.30
2018-03-04T15:27:36.192Z,5.10
2018-03-04T15:30:03.727Z,4.20
2018-03-04T15:32:31.647Z,7.70
2018-03-04T15:35:00.167Z,5.73
2018-03-04T15:37:27.754Z,5.77
2018-03-04T15:39:55.279Z,5.30
2018-03-04T15:42:22.817Z,5.80
2018-03-04T15:44:50.324Z,5.33
2018-03-04T15:47:17.917Z,8.10
2018-03-04T15:49:45.490Z,6.50
2018-03-04T15:52:13.151Z,7.87
2018-03-04T15:54:40.654Z,5.93
2018-03-04T15:57:08.169Z,7.33
2018-03-04T15:59:35.690Z,7.93
2018-03-04T16:02:03.489Z,7.00
2018-03-04T16:04:31.278Z,8.40
2018-03-04T16:06:58.938Z,6.03
2018-03-04T16:09:26.449Z,5.70
2018-03-04T16:11:53.987Z,6.63
2018-03-04T16:14:21.509Z,6.63
2018-03-04T16:16:49.146Z,6.70
2018-03-04T16:19:16.653Z,5.90
2018-03-04T16:21:48.181Z,7.80
2018-03-04T16:24:15.725Z,13.57
2018-03-04T16:26:43.257Z,9.10
2018-03-04T16:29:10.783Z,10.60
2018-03-04T16:31:38.374Z,12.20
2018-03-04T16:34:05.917Z,10.57
2018-03-04T16:36:33.506Z,12.60
2018-03-04T16:39:01.046Z,11.40
2018-03-04T16:41:28.575Z,10.23
2018-03-04T16:43:56.494Z,11.40
2018-03-04T16:46:24.199Z,10.50
2018-03-04T16:48:51.796Z,14.47
2018-03-04T16:51:19.379Z,11.10
2018-03-04T16:53:47.167Z,11.87
2018-03-04T16:56:14.696Z,12.03
2018-03-04T16:58:42.503Z,11.70
2018-03-04T17:01:10.603Z,12.07
2018-03-04T17:03:38.184Z,12.60
2018-03-04T17:06:05.722Z,9.50
2018-03-04T17:08:36.146Z,8.47
2018-03-04T17:11:06.330Z,10.83
2018-03-04T17:13:33.992Z,9.90
2018-03-04T17:16:06.120Z,9.60
2018-03-04T17:18:33.636Z,8.47
2018-03-04T17:21:23.183Z,9.90
2018-03-04T17:24:16.954Z,9.33
2018-03-04T17:26:59.473Z,9.83
2018-03-04T17:32:29.927Z,8.90
2018-03-04T17:35:05.768Z,8.90
2018-03-04T17:37:59.038Z,9.27
2018-03-04T17:40:41.539Z,7.77
2018-03-04T17:43:09.258Z,8.17
2018-03-04T17:48:30.220Z,12.93
2018-03-04T17:50:57.845Z,8.17
2018-03-04T17:53:31.414Z,7.20
2018-03-04T17:56:11.859Z,7.80
2018-03-04T17:58:42.117Z,7.00
2018-03-04T18:01:12.237Z,7.30
2018-03-04T18:04:04.944Z,10.53
2018-03-04T18:06:42.025Z,7.93
2018-03-04T18:12:11.788Z,8.87
2018-03-04T18:14:39.294Z,11.53
2018-03-04T18:17:12.120Z,46.77
2018-03-04T18:19:39.646Z,50.23
2018-03-04T18:22:17.984Z,38.23
2018-03-04T18:25:04.909Z,26.97
2018-03-04T18:27:47.611Z,23.50
2018-03-04T18:30:29.550Z,23.13
2018-03-04T18:33:11.560Z,24.83
2018-03-04T18:35:39.120Z,24.30
2018-03-04T18:38:12.256Z,24.80
2018-03-04T18:40:39.778Z,26.57
2018-03-04T18:43:14.460Z,20.17
2018-03-04T18:45:42.375Z,25.80
2018-03-04T18:48:09.910Z,26.57
2018-03-04T18:50:48.045Z,22.97
2018-03-04T18:53:29.510Z,24.90
2018-03-04T18:59:00.023Z,25.23
2018-03-04T19:01:27.988Z,21.07
2018-03-04T19:03:55.578Z,24.30
2018-03-04T19:09:15.979Z,22.10
2018-03-04T19:11:48.331Z,24.47
2018-03-04T19:14:35.589Z,24.67
2018-03-04T19:17:03.110Z,22.90
2018-03-04T19:19:36.326Z,21.87
2018-03-04T19:22:03.853Z,28.97
2018-03-04T19:24:31.401Z,23.10
2018-03-04T19:27:05.810Z,21.40
2018-03-04T19:29:33.351Z,26.30
2018-03-04T19:32:00.861Z,24.43
2018-03-04T19:34:28.412Z,24.87
2018-03-04T19:36:56.327Z,23.53
2018-03-04T19:39:23.845Z,26.77
2018-03-04T19:41:51.378Z,25.37
2018-03-04T19:44:18.899Z,22.53
2018-03-04T19:46:46.482Z,21.80
2018-03-04T19:49:14.000Z,22.77
2018-03-04T19:51:41.523Z,21.50
2018-03-04T19:54:17.944Z,22.90
2018-03-04T19:56:53.810Z,22.83
2018-03-04T19:59:24.283Z,26.20
2018-03-04T20:04:44.296Z,23.00
2018-03-04T20:07:11.811Z,23.57
2018-03-04T20:09:42.353Z,25.10
2018-03-04T20:12:12.154Z,24.50
2018-03-04T20:17:41.860Z,25.73
2018-03-04T20:20:09.455Z,24.93
2018-03-04T20:22:37.362Z,23.10
2018-03-04T20:25:11.823Z,23.53
2018-03-04T20:27:42.480Z,21.37
2018-03-04T20:30:10.011Z,23.03
2018-03-04T20:32:59.328Z,22.17
2018-03-04T20:35:26.857Z,26.87
2018-03-04T20:38:00.367Z,23.37
2018-03-04T20:40:47.094Z,25.13
2018-03-04T20:43:18.194Z,23.13
2018-03-04T20:45:58.406Z,27.70
2018-03-04T20:48:33.249Z,24.73
2018-03-04T20:51:00.789Z,23.17
2018-03-04T20:53:28.316Z,24.73
2018-03-04T20:56:00.242Z,25.50
2018-03-04T20:58:27.806Z,24.03
2018-03-04T21:01:00.281Z,24.80
2018-03-04T21:03:27.798Z,26.90
2018-03-04T21:05:55.351Z,24.00
2018-03-04T21:08:41.626Z,25.60
2018-03-04T21:14:01.977Z,25.67
2018-03-04T21:16:42.032Z,27.13
2018-03-04T21:19:23.669Z,24.23
2018-03-04T21:22:17.085Z,28.70
2018-03-04T21:24:44.890Z,26.13
2018-03-04T21:27:12.410Z,24.60
2018-03-04T21:29:39.937Z,26.37
2018-03-04T21:32:07.454Z,26.80
2018-03-04T21:34:41.932Z,26.47
2018-03-04T21:37:12.199Z,24.37
2018-03-04T21:39:47.910Z,25.77
2018-03-04T21:42:18.420Z,25.67
2018-03-04T21:44:59.561Z,25.57
2018-03-04T21:47:41.585Z,25.90
2018-03-04T21:50:23.712Z,25.70
2018-03-04T21:53:05.536Z,28.17
2018-03-04T21:55:33.119Z,23.90
2018-03-04T22:04:11.251Z,23.60
2018-03-04T22:06:42.322Z,24.87
2018-03-04T22:12:03.558Z,26.40
2018-03-04T22:14:41.870Z,22.50
2018-03-04T22:17:09.425Z,24.20
2018-03-04T22:19:53.565Z,25.23
2018-03-04T22:22:35.565Z,26.70
2018-03-04T22:25:03.134Z,25.20
2018-03-04T22:27:47.549Z,22.47
2018-03-04T22:30:35.101Z,22.87
2018-03-04T22:33:12.028Z,24.27
2018-03-04T22:35:48.053Z,25.93
2018-03-04T22:41:08.274Z,22.83
2018-03-04T22:43:42.002Z,22.60
2018-03-04T22:46:10.177Z,23.57
2018-03-04T22:48:38.096Z,24.47
2018-03-04T22:51:05.616Z,21.03
2018-03-04T22:53:47.620Z,21.23
2018-03-04T22:56:15.143Z,21.10
2018-03-04T22:58:42.674Z,25.13
2018-03-04T23:01:12.324Z,20.40
2018-03-04T23:03:53.680Z,19.53
2018-03-04T23:06:41.072Z,19.93
2018-03-04T23:09:08.594Z,19.97
2018-03-04T23:11:36.125Z,18.67
2018-03-04T23:14:17.666Z,21.23
2018-03-04T23:16:45.195Z,21.73
2018-03-04T23:19:29.552Z,19.10
2018-03-04T23:21:57.323Z,18.37
2018-03-04T23:24:24.849Z,22.00
2018-03-04T23:29:45.327Z,17.53
2018-03-04T23:32:18.450Z,15.03
2018-03-04T23:37:42.469Z,17.60
2018-03-04T23:40:23.767Z,19.83
2018-03-04T23:42:59.908Z,16.43
2018-03-04T23:45:30.303Z,16.90
2018-03-04T23:47:58.231Z,15.83
2018-03-04T23:53:18.294Z,19.80
2018-03-04T23:55:53.918Z,14.40
2018-03-04T23:58:21.451Z,15.60
